createdAt,value
2023-05-02T00:02:36.680Z,100953.94
2023-05-02T00:05:42.485Z,100950.91
2023-05-02T00:08:50.116Z,100936.69
2023-05-02T00:11:56.080Z,100927.81
2023-05-02T00:15:01.508Z,100925.75
2023-05-02T00:18:07.403Z,100928.41
2023-05-02T00:21:13.140Z,100923.28
2023-05-02T00:24:19.399Z,100917.88
2023-05-02T00:27:25.985Z,100914.94
2023-05-02T00:30:31.654Z,100900.88
2023-05-02T00:33:36.915Z,100895.59
2023-05-02T00:36:42.240Z,100892.91
2023-05-02T00:39:47.797Z,100883.63
2023-05-02T00:42:53.231Z,100868.75
2023-05-02T00:45:59.193Z,100875.50
2023-05-02T00:49:04.883Z,100871.19
2023-05-02T00:52:11.566Z,100885.41
2023-05-02T00:55:17.947Z,100868.53
2023-05-02T00:58:23.915Z,100873.88
2023-05-02T01:01:44.440Z,100871.75
2023-05-02T01:05:11.644Z,100868.84
2023-05-02T01:08:30.354Z,100864.06
2023-05-02T01:12:00.711Z,100864.47
2023-05-02T01:15:16.044Z,100866.00
2023-05-02T01:18:26.191Z,100867.53
2023-05-02T01:21:33.069Z,100862.75
2023-05-02T01:25:02.978Z,100861.63
2023-05-02T01:28:35.154Z,100866.81
2023-05-02T01:31:44.607Z,100869.91
2023-05-02T01:34:53.881Z,100871.84
2023-05-02T01:38:02.946Z,100873.94
2023-05-02T01:41:10.361Z,100868.59
2023-05-02T01:44:17.748Z,100862.69
2023-05-02T01:47:25.073Z,100863.00
2023-05-02T01:50:33.115Z,100864.06
2023-05-02T01:53:40.551Z,100864.41
2023-05-02T01:56:48.076Z,100865.75
2023-05-02T01:59:59.887Z,100865.19
2023-05-02T02:03:11.976Z,100864.84
2023-05-02T02:06:19.593Z,100862.94
2023-05-02T02:09:25.434Z,100863.25
2023-05-02T02:12:42.335Z,100866.97
2023-05-02T02:15:50.413Z,100858.44
2023-05-02T02:18:59.562Z,100863.72
2023-05-02T02:22:08.347Z,100862.44
2023-05-02T02:25:17.452Z,100861.56
2023-05-02T02:28:23.396Z,100867.78
2023-05-02T02:31:36.259Z,100860.44
2023-05-02T02:34:42.252Z,100858.81
2023-05-02T02:37:52.771Z,100856.44
2023-05-02T02:41:11.999Z,100863.91
2023-05-02T02:44:45.976Z,100860.16
2023-05-02T02:48:09.048Z,100862.03
2023-05-02T02:51:26.209Z,100859.94
2023-05-02T02:54:40.668Z,100860.25
2023-05-02T02:57:56.011Z,100865.28
2023-05-02T03:01:05.313Z,100862.13
2023-05-02T03:04:13.918Z,100864.78
2023-05-02T03:07:19.652Z,100869.25
2023-05-02T03:10:25.749Z,100875.09
2023-05-02T03:13:32.883Z,100876.78
2023-05-02T03:16:40.573Z,100885.22
2023-05-02T03:19:50.811Z,100894.72
2023-05-02T03:22:56.359Z,100886.69
2023-05-02T03:26:03.357Z,100881.00
2023-05-02T03:29:11.118Z,100882.31
2023-05-02T03:32:20.934Z,100879.66
2023-05-02T03:35:26.966Z,100883.13
2023-05-02T03:38:32.953Z,100889.84
2023-05-02T03:41:44.182Z,100880.44
2023-05-02T03:44:54.344Z,100885.31
2023-05-02T03:48:00.041Z,100892.59
2023-05-02T03:51:08.602Z,100882.72
2023-05-02T03:54:19.758Z,100889.94
2023-05-02T03:57:25.917Z,100881.41
2023-05-02T04:00:32.087Z,100893.72
2023-05-02T04:03:43.361Z,100891.31
2023-05-02T04:06:51.780Z,100891.72
2023-05-02T04:09:57.786Z,100898.53
2023-05-02T04:13:04.978Z,100901.75
2023-05-02T04:16:12.525Z,100902.81
2023-05-02T04:19:19.444Z,100906.88
2023-05-02T04:22:25.154Z,100911.75
2023-05-02T04:25:36.044Z,100922.59
2023-05-02T04:28:42.730Z,100924.72
2023-05-02T04:31:51.184Z,100922.47
2023-05-02T04:34:57.123Z,100924.38
2023-05-02T04:38:02.951Z,100923.09
2023-05-02T04:41:09.576Z,100920.91
2023-05-02T04:44:22.769Z,100916.34
2023-05-02T04:47:28.642Z,100928.44
2023-05-02T04:50:33.950Z,100938.31
2023-05-02T04:53:39.345Z,100945.78
2023-05-02T04:56:44.761Z,100943.13
2023-05-02T04:59:51.110Z,100954.38
2023-05-02T05:02:59.244Z,100957.16
2023-05-02T05:06:06.662Z,100959.59
2023-05-02T05:09:12.645Z,100965.28
2023-05-02T05:12:19.010Z,100965.84
2023-05-02T05:15:26.275Z,100977.94
2023-05-02T05:18:45.057Z,100978.50
2023-05-02T05:21:52.851Z,100978.34
2023-05-02T05:25:00.343Z,100989.13
2023-05-02T05:28:09.476Z,100988.34
2023-05-02T05:31:17.559Z,100991.88
2023-05-02T05:34:27.491Z,100989.47
2023-05-02T05:37:39.764Z,100992.78
2023-05-02T05:40:51.525Z,100986.94
2023-05-02T05:43:57.946Z,100986.69
2023-05-02T05:47:05.384Z,100998.31
2023-05-02T05:50:11.577Z,100996.53
2023-05-02T05:53:18.806Z,100998.84
2023-05-02T05:56:27.302Z,101006.97
2023-05-02T05:59:39.376Z,101006.69
2023-05-02T06:02:47.409Z,101013.28
2023-05-02T06:06:02.037Z,101012.53
2023-05-02T06:09:07.348Z,101012.16
2023-05-02T06:12:13.108Z,101019.72
2023-05-02T06:15:19.347Z,101025.06
2023-05-02T06:18:25.156Z,101021.97
2023-05-02T06:21:31.814Z,101026.84
2023-05-02T06:24:38.060Z,101030.91
2023-05-02T06:27:43.729Z,101032.06
2023-05-02T06:31:01.693Z,101045.53
2023-05-02T06:34:07.535Z,101047.69
2023-05-02T06:37:13.559Z,101046.06
2023-05-02T06:40:19.420Z,101050.88
2023-05-02T06:43:25.324Z,101055.75
2023-05-02T06:46:33.997Z,101059.06
2023-05-02T06:49:39.647Z,101063.31
2023-05-02T06:52:44.972Z,101059.94
2023-05-02T06:55:50.569Z,101066.00
2023-05-02T06:58:56.075Z,101071.38
2023-05-02T07:02:03.033Z,101074.66
2023-05-02T07:05:11.051Z,101073.41
2023-05-02T07:08:16.377Z,101071.53
2023-05-02T07:11:23.797Z,101070.03
2023-05-02T08:52:58.342Z,101142.91
2023-05-02T08:56:04.570Z,101149.06
2023-05-02T08:59:10.166Z,101156.66
2023-05-02T09:02:45.252Z,101154.94
2023-05-02T09:06:20.979Z,101166.25
2023-05-02T09:09:27.430Z,101168.19
2023-05-02T09:12:33.000Z,101173.34
2023-05-02T09:15:38.797Z,101167.47
2023-05-02T09:18:45.996Z,101180.53
2023-05-02T09:21:51.575Z,101177.00
2023-05-02T09:24:57.873Z,101174.28
2023-05-02T09:28:03.973Z,101181.78
2023-05-02T09:31:16.863Z,101184.34
2023-05-02T09:34:24.750Z,101187.19
2023-05-02T09:37:36.627Z,101181.84
2023-05-02T09:40:57.866Z,101191.34
2023-05-02T09:44:02.949Z,101197.44
2023-05-02T09:47:08.884Z,101199.41
2023-05-02T09:50:37.597Z,101192.69
2023-05-02T09:53:48.006Z,101194.16
2023-05-02T09:56:57.417Z,101195.28
2023-05-02T10:00:03.747Z,101194.88
2023-05-02T10:03:19.547Z,101206.50
2023-05-02T10:06:25.124Z,101190.03
2023-05-02T10:09:34.478Z,101200.56
2023-05-02T10:12:40.908Z,101204.41
2023-05-02T10:15:49.815Z,101207.91
2023-05-02T10:19:08.063Z,101199.91
2023-05-02T10:22:14.313Z,101195.03
2023-05-02T10:25:19.876Z,101195.75
2023-05-02T10:28:26.944Z,101196.81
2023-05-02T10:31:35.451Z,101203.66
2023-05-02T10:34:42.128Z,101198.59
2023-05-02T10:37:49.810Z,101201.06
2023-05-02T10:41:01.675Z,101199.22
2023-05-02T10:44:09.137Z,101203.03
2023-05-02T10:47:22.827Z,101197.44
2023-05-02T10:50:47.713Z,101190.44
2023-05-02T10:53:53.284Z,101198.78
2023-05-02T10:57:03.609Z,101196.13
2023-05-02T11:00:22.195Z,101194.22
2023-05-02T11:03:59.697Z,101203.44
2023-05-02T11:07:05.113Z,101192.94
2023-05-02T11:10:22.533Z,101204.88
2023-05-02T11:13:49.990Z,101203.06
2023-05-02T11:17:01.437Z,101200.91
2023-05-02T11:20:07.901Z,101203.13
2023-05-02T11:23:16.550Z,101209.03
2023-05-02T11:26:23.362Z,101206.91
2023-05-02T11:30:06.965Z,101208.25
2023-05-02T11:33:16.292Z,101207.75
2023-05-02T11:36:35.049Z,101205.84
2023-05-02T11:39:41.107Z,101205.28
2023-05-02T11:42:47.421Z,101210.22
2023-05-02T11:45:54.410Z,101205.59
2023-05-02T11:49:01.345Z,101206.06
2023-05-02T11:52:06.708Z,101209.28
2023-05-02T11:55:14.223Z,101200.22
2023-05-02T11:58:22.115Z,101203.44
2023-05-02T12:01:27.773Z,101209.63
2023-05-02T12:04:43.686Z,101205.06
2023-05-02T12:07:49.489Z,101217.00
2023-05-02T12:10:56.555Z,101204.59
2023-05-02T12:14:04.123Z,101211.91
2023-05-02T12:17:09.543Z,101199.50
2023-05-02T12:20:16.162Z,101210.56
2023-05-02T12:23:23.765Z,101217.56
2023-05-02T12:26:34.168Z,101218.13
2023-05-02T12:29:44.463Z,101214.59
2023-05-02T12:33:01.824Z,101219.19
2023-05-02T12:36:08.498Z,101228.59
2023-05-02T12:39:14.091Z,101226.75
2023-05-02T12:42:21.390Z,101223.75
2023-05-02T12:45:29.407Z,101219.72
2023-05-02T12:48:34.874Z,101213.28
2023-05-02T12:51:41.464Z,101227.03
2023-05-02T12:54:47.249Z,101217.38
2023-05-02T12:58:01.501Z,101222.22
2023-05-02T13:01:08.374Z,101224.72
2023-05-02T13:04:14.288Z,101225.19
2023-05-02T13:07:19.693Z,101220.09
2023-05-02T13:10:26.612Z,101223.63
2023-05-02T13:13:32.877Z,101219.00
2023-05-02T13:16:38.728Z,101226.53
2023-05-02T13:19:50.478Z,101233.50
2023-05-02T13:22:56.458Z,101234.63
2023-05-02T13:26:01.688Z,101223.03
2023-05-02T13:29:07.020Z,101221.97
2023-05-02T13:32:12.700Z,101217.09
2023-05-02T13:35:18.675Z,101217.09
2023-05-02T13:38:23.930Z,101197.38
2023-05-02T13:41:29.440Z,101224.38
2023-05-02T13:44:34.600Z,101211.94
2023-05-02T13:47:40.929Z,101210.34
2023-05-02T13:50:46.867Z,101207.41
2023-05-02T13:53:52.071Z,101212.25
2023-05-02T13:56:57.469Z,101210.06
2023-05-02T14:00:03.373Z,101216.78
2023-05-02T14:03:11.497Z,101209.25
2023-05-02T14:06:16.900Z,101216.00
2023-05-02T14:09:22.461Z,101211.13
2023-05-02T14:12:28.599Z,101225.97
2023-05-02T14:15:33.982Z,101219.25
2023-05-02T14:18:39.370Z,101231.88
2023-05-02T14:21:45.261Z,101223.81
2023-05-02T14:24:51.434Z,101218.41
2023-05-02T14:27:56.785Z,101223.81
2023-05-02T14:31:01.981Z,101221.09
2023-05-02T14:34:08.964Z,101234.88
2023-05-02T14:37:14.938Z,101227.31
2023-05-02T14:40:20.375Z,101234.28
2023-05-02T14:43:27.238Z,101238.88
2023-05-02T14:46:32.965Z,101239.69
2023-05-02T14:49:38.247Z,101240.50
2023-05-02T14:52:46.778Z,101241.84
2023-05-02T14:55:52.376Z,101234.81
2023-05-02T14:58:57.711Z,101245.59
2023-05-02T15:02:03.367Z,101243.44
2023-05-02T15:05:12.584Z,101242.59
2023-05-02T15:08:18.616Z,101245.59
2023-05-02T15:11:23.813Z,101239.91
2023-05-02T15:14:29.584Z,101239.91
2023-05-02T15:17:34.731Z,101243.09
2023-05-02T15:20:39.998Z,101238.25
2023-05-02T15:23:45.654Z,101242.84
2023-05-02T15:26:52.085Z,101240.28
2023-05-02T15:29:57.438Z,101249.47
2023-05-02T15:33:03.345Z,101248.03
2023-05-02T15:36:08.888Z,101247.50
2023-05-02T15:39:14.018Z,101252.13
2023-05-02T15:42:19.705Z,101255.63
2023-05-02T15:45:25.607Z,101257.38
2023-05-02T15:48:33.615Z,101250.09
2023-05-02T15:51:39.361Z,101258.13
2023-05-02T15:54:45.357Z,101255.16
2023-05-02T15:57:52.294Z,101253.03
2023-05-02T16:00:57.780Z,101258.56
2023-05-02T16:04:02.953Z,101259.38
2023-05-02T16:07:08.052Z,101264.75
2023-05-02T16:10:13.399Z,101256.66
2023-05-02T16:13:19.339Z,101259.59
2023-05-02T16:16:24.938Z,101261.44
2023-05-02T16:19:30.978Z,101257.38
2023-05-02T16:22:37.063Z,101263.28
2023-05-02T16:25:42.446Z,101260.78
2023-05-02T16:28:48.138Z,101269.38
2023-05-02T16:31:53.498Z,101262.91
2023-05-02T16:34:58.566Z,101274.28
2023-05-02T16:38:04.341Z,101271.03
2023-05-02T16:41:10.497Z,101274.25
2023-05-02T16:44:16.112Z,101274.28
2023-05-02T16:47:22.262Z,101280.94
2023-05-02T16:50:28.156Z,101280.69
2023-05-02T16:53:33.523Z,101286.09
2023-05-02T16:56:40.842Z,101283.34
2023-05-02T16:59:51.481Z,101287.91
2023-05-02T17:02:57.345Z,101294.19
2023-05-02T17:06:03.485Z,101296.28
2023-05-02T17:09:10.141Z,101289.25
2023-05-02T17:12:16.038Z,101298.94
2023-05-02T17:15:22.681Z,101293.78
2023-05-02T17:18:28.339Z,101303.47
2023-05-02T17:21:34.028Z,101299.66
2023-05-02T17:24:39.911Z,101296.69
2023-05-02T17:27:45.359Z,101302.63
2023-05-02T17:30:54.992Z,101303.69
2023-05-02T17:34:00.845Z,101306.06
2023-05-02T17:37:07.814Z,101319.78
2023-05-02T17:40:13.957Z,101318.91
2023-05-02T17:43:19.782Z,101329.34
2023-05-02T17:46:26.252Z,101321.09
2023-05-02T17:49:35.427Z,101326.75
2023-05-02T17:52:41.668Z,101330.94
2023-05-02T17:55:47.836Z,101340.38
2023-05-02T17:58:54.088Z,101339.78
2023-05-02T18:01:59.834Z,101350.53
2023-05-02T18:05:07.095Z,101353.44
2023-05-02T18:08:13.064Z,101346.13
2023-05-02T18:11:21.283Z,101352.97
2023-05-02T18:14:27.206Z,101343.34
2023-05-02T18:17:33.258Z,101351.03
2023-05-02T18:20:40.772Z,101354.28
2023-05-02T18:23:47.009Z,101354.22
2023-05-02T18:26:53.042Z,101358.25
2023-05-02T18:29:59.141Z,101363.91
2023-05-02T18:33:05.587Z,101361.78
2023-05-02T18:36:11.785Z,101367.81
2023-05-02T18:39:18.404Z,101377.34
2023-05-02T18:42:24.365Z,101376.28
2023-05-02T18:45:30.477Z,101383.53
2023-05-02T18:48:36.744Z,101379.72
2023-05-02T18:51:42.285Z,101392.03
2023-05-02T18:54:47.953Z,101394.53
2023-05-02T18:57:53.759Z,101405.91
2023-05-02T19:00:59.867Z,101413.56
2023-05-02T19:04:05.627Z,101408.59
2023-05-02T19:07:11.535Z,101415.44
2023-05-02T19:10:17.317Z,101412.97
2023-05-02T19:13:23.169Z,101423.44
2023-05-02T19:16:29.484Z,101426.81
2023-05-02T19:19:35.376Z,101433.59
2023-05-02T19:22:42.872Z,101437.81
2023-05-02T19:25:48.590Z,101444.31
2023-05-02T19:28:54.283Z,101445.88
2023-05-02T19:32:00.807Z,101449.53
2023-05-02T19:35:09.116Z,101456.38
2023-05-02T19:38:14.981Z,101465.13
2023-05-02T19:41:22.696Z,101466.19
2023-05-02T19:44:28.622Z,101466.03
2023-05-02T19:47:34.722Z,101474.38
2023-05-02T19:50:40.813Z,101481.78
2023-05-02T19:53:47.200Z,101481.69
2023-05-02T19:56:53.052Z,101491.38
2023-05-02T19:59:58.805Z,101482.28
2023-05-02T20:03:05.299Z,101489.50
2023-05-02T20:06:11.406Z,101488.56
2023-05-02T20:09:17.585Z,101495.69
2023-05-02T20:12:23.023Z,101498.47
2023-05-02T20:15:29.194Z,101501.72
2023-05-02T20:18:34.681Z,101502.63
2023-05-02T20:21:43.416Z,101509.28
2023-05-02T20:24:49.170Z,101504.41
2023-05-02T20:27:54.921Z,101509.28
2023-05-02T20:31:03.070Z,101512.53
2023-05-02T20:34:09.133Z,101519.66
2023-05-02T20:37:15.452Z,101512.66
2023-05-02T20:40:22.842Z,101519.66
2023-05-02T20:43:29.219Z,101517.91
2023-05-02T20:46:35.063Z,101515.34
2023-05-02T20:49:40.655Z,101524.44
2023-05-02T20:52:46.246Z,101525.94
2023-05-02T20:55:51.708Z,101528.28
2023-05-02T20:58:57.266Z,101530.38
2023-05-02T21:02:03.222Z,101536.66
2023-05-02T21:05:09.176Z,101533.06
2023-05-02T21:08:15.125Z,101532.72
2023-05-02T21:11:22.185Z,101542.16
2023-05-02T21:14:27.810Z,101544.38
2023-05-02T21:17:33.559Z,101541.94
2023-05-02T21:20:41.661Z,101538.91
2023-05-02T21:23:47.194Z,101541.03
2023-05-02T21:26:52.987Z,101542.53
2023-05-02T21:29:58.242Z,101539.03
2023-05-02T21:33:04.129Z,101543.94
2023-05-02T21:36:10.341Z,101554.56
2023-05-02T21:39:16.747Z,101540.41
2023-05-02T21:42:22.928Z,101548.28
2023-05-02T21:45:30.440Z,101556.19
2023-05-02T21:48:36.249Z,101551.66
2023-05-02T21:51:41.676Z,101545.47
2023-05-02T21:54:50.243Z,101542.47
2023-05-02T21:57:56.311Z,101550.16
2023-05-02T22:01:02.188Z,101542.78
2023-05-02T22:04:07.794Z,101552.38
2023-05-02T22:07:13.381Z,101550.38
2023-05-02T22:10:18.885Z,101551.53
2023-05-02T22:13:25.867Z,101555.53
2023-05-02T22:16:31.685Z,101569.59
2023-05-02T22:19:37.872Z,101564.50
2023-05-02T22:22:43.394Z,101571.00
2023-05-02T22:25:49.146Z,101577.34
2023-05-02T22:28:54.886Z,101577.34
2023-05-02T22:32:00.297Z,101576.72
2023-05-02T22:35:07.106Z,101578.84
2023-05-02T22:38:17.037Z,101583.00
2023-05-02T22:41:22.554Z,101586.31
2023-05-02T22:44:27.975Z,101585.00
2023-05-02T22:47:33.919Z,101588.13
2023-05-02T22:50:39.097Z,101594.94
2023-05-02T22:53:44.646Z,101585.56
2023-05-02T22:56:50.595Z,101592.91
2023-05-02T22:59:56.568Z,101592.56
2023-05-02T23:03:02.774Z,101590.38
2023-05-02T23:06:08.515Z,101592.00
2023-05-02T23:09:15.017Z,101587.47
2023-05-02T23:12:20.629Z,101590.25
2023-05-02T23:15:26.277Z,101588.63
2023-05-02T23:18:31.792Z,101594.56
2023-05-02T23:21:37.482Z,101581.84
2023-05-02T23:24:42.985Z,101578.25
2023-05-02T23:27:49.168Z,101577.09
2023-05-02T23:30:54.829Z,101576.84
2023-05-02T23:34:01.176Z,101583.59
2023-05-02T23:37:07.752Z,101579.06
2023-05-02T23:40:13.770Z,101578.13
2023-05-02T23:43:19.122Z,101572.06
2023-05-02T23:46:25.090Z,101575.94
2023-05-02T23:49:30.792Z,101573.94
2023-05-02T23:52:36.629Z,101573.13
2023-05-02T23:55:42.099Z,101564.94
2023-05-02T23:58:47.975Z,101563.44
